Time;durP1;ratioP1;P1;durP2;ratioP2;P2;SDS_P1;SDS_P2;PMS_P1;PMS_P2;Temp;Humidity;BMP_temperature;BMP_pressure;BME280_temperature;BME280_humidity;BME280_pressure;Samples;Min_cycle;Max_cycle;Signal;HPM_P1;HPM_P2
2024/02/27 00:00:14;;;;;;;;;;;6.80;99.90;;;;;;2060320;28;19999;-70
2024/02/27 00:01:14;;;;;;;;;;;6.80;99.90;;;;;;2059527;28;19952;-71
2024/02/27 00:02:15;;;;;;;;;;;6.80;99.90;;;;;;2056014;28;19920;-71
2024/02/27 00:03:15;;;;;;;;;;;6.80;99.90;;;;;;2057230;28;20292;-71
2024/02/27 00:04:16;;;;;;;;;;;6.80;99.90;;;;;;2056119;28;19910;-71
2024/02/27 00:05:19;;;;;;;;;;;6.80;99.90;;;;;;2060175;28;19910;-70
2024/02/27 00:06:20;;;;;;;;;;;6.80;99.90;;;;;;2059529;28;19914;-70
2024/02/27 00:07:20;;;;;;;;;;;6.80;99.90;;;;;;2059355;28;19913;-70
2024/02/27 00:08:21;;;;;;;;;;;6.70;99.90;;;;;;2060260;28;19914;-70
2024/02/27 00:09:22;;;;;;;;;;;6.70;99.90;;;;;;2056222;28;20030;-71
2024/02/27 00:10:22;;;;;;;;;;;6.80;99.90;;;;;;2060037;28;19913;-69
2024/02/27 00:11:23;;;;;;;;;;;6.80;99.90;;;;;;2060098;28;19917;-71
2024/02/27 00:12:24;;;;;;;;;;;6.70;99.90;;;;;;2056450;28;19914;-71
2024/02/27 00:13:24;;;;;;;;;;;6.70;99.90;;;;;;2059238;28;19989;-70
2024/02/27 00:14:25;;;;;;;;;;;6.70;99.90;;;;;;2056134;28;20420;-69
2024/02/27 00:15:25;;;;;;;;;;;6.70;99.90;;;;;;2060079;28;19957;-71
2024/02/27 00:16:26;;;;;;;;;;;6.70;99.90;;;;;;2055422;28;19961;-69
2024/02/27 00:17:26;;;;;;;;;;;6.70;99.90;;;;;;2057816;28;19945;-70
2024/02/27 00:18:27;;;;;;;;;;;6.70;99.90;;;;;;2053944;28;19913;-71
2024/02/27 00:19:28;;;;;;;;;;;6.70;99.90;;;;;;2059963;28;20033;-71
2024/02/27 00:20:28;;;;;;;;;;;6.70;99.90;;;;;;2057876;28;19952;-71
2024/02/27 00:21:29;;;;;;;;;;;6.70;99.90;;;;;;2058597;28;19914;-71
2024/02/27 00:22:29;;;;;;;;;;;6.70;99.90;;;;;;2056364;28;19914;-71
2024/02/27 00:23:30;;;;;;;;;;;6.70;99.90;;;;;;2060056;28;19914;-70
2024/02/27 00:24:30;;;;;;;;;;;6.70;99.90;;;;;;2059716;28;19913;-69
2024/02/27 00:25:31;;;;;;;;;;;6.60;99.90;;;;;;2060236;28;20299;-69
2024/02/27 00:26:31;;;;;;;;;;;6.60;99.90;;;;;;2060213;28;19916;-69
2024/02/27 00:27:31;;;;;;;;;;;6.60;99.90;;;;;;2055734;28;19993;-69
2024/02/27 00:28:32;;;;;;;;;;;6.60;99.90;;;;;;2060200;28;20003;-70
2024/02/27 00:29:33;;;;;;;;;;;6.60;99.90;;;;;;2056841;28;20497;-70
2024/02/27 00:30:34;;;;;;;;;;;6.60;99.90;;;;;;2051646;28;19966;-71
2024/02/27 00:31:34;;;;;;;;;;;6.60;99.90;;;;;;2056666;28;19949;-70
2024/02/27 00:32:35;;;;;;;;;;;6.60;99.90;;;;;;2059765;28;19925;-71
2024/02/27 00:33:35;;;;;;;;;;;6.60;99.90;;;;;;2055886;28;20328;-71
2024/02/27 00:34:36;;;;;;;;;;;6.60;99.90;;;;;;2060115;28;20292;-70
2024/02/27 00:35:36;;;;;;;;;;;6.60;99.90;;;;;;2059680;28;19913;-70
2024/02/27 00:36:37;;;;;;;;;;;6.60;99.90;;;;;;2059921;28;20125;-70
2024/02/27 00:37:37;;;;;;;;;;;6.60;99.90;;;;;;2057383;28;20016;-70
2024/02/27 00:38:38;;;;;;;;;;;6.60;99.90;;;;;;2058453;28;20434;-70
2024/02/27 00:39:38;;;;;;;;;;;6.60;99.90;;;;;;2059781;28;20509;-70
2024/02/27 00:40:39;;;;;;;;;;;6.60;99.90;;;;;;2055499;28;20071;-70
2024/02/27 00:41:40;;;;;;;;;;;6.50;99.90;;;;;;2053263;28;19956;-70
2024/02/27 00:42:41;;;;;;;;;;;6.50;99.90;;;;;;2056431;28;19914;-70
2024/02/27 00:43:41;;;;;;;;;;;6.50;99.90;;;;;;2056071;28;20277;-70
2024/02/27 00:44:45;;;;;;;;;;;6.60;99.90;;;;;;2059096;28;19914;-69
2024/02/27 00:45:45;;;;;;;;;;;6.60;99.90;;;;;;2059871;28;20008;-69
2024/02/27 00:46:46;;;;;;;;;;;6.50;99.90;;;;;;2056229;28;19961;-70
2024/02/27 00:47:47;;;;;;;;;;;6.50;99.90;;;;;;2059489;28;20073;-69
2024/02/27 00:48:48;;;;;;;;;;;6.60;99.90;;;;;;2058807;28;19910;-71
2024/02/27 00:49:48;;;;;;;;;;;6.50;99.90;;;;;;2059341;28;20376;-71
2024/02/27 00:50:49;;;;;;;;;;;6.50;99.90;;;;;;2055319;28;19989;-69
2024/02/27 00:51:49;;;;;;;;;;;6.50;99.90;;;;;;2060686;28;20292;-70
2024/02/27 00:52:50;;;;;;;;;;;6.50;99.90;;;;;;2059775;28;20351;-70
2024/02/27 00:53:50;;;;;;;;;;;6.50;99.90;;;;;;2060125;28;19922;-70
2024/02/27 00:54:51;;;;;;;;;;;6.50;99.90;;;;;;2059644;28;19964;-70
2024/02/27 00:55:51;;;;;;;;;;;6.50;99.90;;;;;;2055739;28;20296;-70
2024/02/27 00:56:52;;;;;;;;;;;6.50;99.90;;;;;;2055520;28;19964;-70
2024/02/27 00:57:52;;;;;;;;;;;6.50;99.90;;;;;;2058488;28;19909;-71
2024/02/27 00:58:53;;;;;;;;;;;6.50;99.90;;;;;;2059729;28;19909;-70
2024/02/27 00:59:54;;;;;;;;;;;6.50;99.90;;;;;;2054559;28;19920;-70
2024/02/27 01:00:54;;;;;;;;;;;6.50;99.90;;;;;;2059039;28;20254;-69
2024/02/27 01:01:54;;;;;;;;;;;6.40;99.90;;;;;;2059624;28;19917;-70
2024/02/27 01:02:55;;;;;;;;;;;6.50;99.90;;;;;;2058571;28;20376;-70
2024/02/27 01:03:55;;;;;;;;;;;6.40;99.90;;;;;;2059158;28;20359;-70
2024/02/27 01:04:56;;;;;;;;;;;6.40;99.90;;;;;;2059195;28;19909;-71
2024/02/27 01:05:56;;;;;;;;;;;6.50;99.90;;;;;;2058429;28;20409;-70
2024/02/27 01:06:57;;;;;;;;;;;6.50;99.90;;;;;;2056306;28;19953;-70
2024/02/27 01:07:57;;;;;;;;;;;6.40;99.90;;;;;;2055143;28;19964;-70
2024/02/27 01:08:58;;;;;;;;;;;6.40;99.90;;;;;;2056236;28;19910;-69
2024/02/27 01:09:58;;;;;;;;;;;6.50;99.90;;;;;;2058832;28;19909;-70
2024/02/27 01:10:59;;;;;;;;;;;6.50;99.90;;;;;;2056728;28;19917;-69
2024/02/27 01:11:59;;;;;;;;;;;6.50;99.90;;;;;;2066454;28;19913;-70
2024/02/27 01:13:00;;;;;;;;;;;6.50;99.90;;;;;;2066810;28;20523;-70
2024/02/27 01:14:00;;;;;;;;;;;6.50;99.90;;;;;;2059647;28;20054;-69
2024/02/27 01:15:01;;;;;;;;;;;6.50;99.90;;;;;;2058830;28;19949;-70
2024/02/27 01:16:01;;;;;;;;;;;6.50;99.90;;;;;;2059136;28;20380;-70
2024/02/27 01:17:02;;;;;;;;;;;6.50;99.90;;;;;;2067090;28;19964;-70
2024/02/27 01:18:02;;;;;;;;;;;6.50;99.90;;;;;;2067234;28;20384;-69
2024/02/27 01:19:04;;;;;;;;;;;6.50;99.90;;;;;;2059630;28;19909;-69
2024/02/27 01:20:05;;;;;;;;;;;6.50;99.90;;;;;;2059548;28;19913;-71
2024/02/27 01:21:06;;;;;;;;;;;6.50;99.90;;;;;;2055174;28;20288;-69
2024/02/27 01:22:07;;;;;;;;;;;6.60;99.90;;;;;;2056741;28;19916;-70
2024/02/27 01:23:07;;;;;;;;;;;6.60;99.90;;;;;;2059429;28;19914;-69
2024/02/27 01:24:08;;;;;;;;;;;6.60;99.90;;;;;;2058845;28;19913;-69
2024/02/27 01:25:11;;;;;;;;;;;6.60;99.90;;;;;;2055530;28;19909;-70
2024/02/27 01:26:12;;;;;;;;;;;6.60;99.90;;;;;;2053304;28;20377;-70
2024/02/27 01:27:12;;;;;;;;;;;6.60;99.90;;;;;;2058008;28;19968;-69
2024/02/27 01:28:12;;;;;;;;;;;6.60;99.90;;;;;;2050989;28;20424;-70
2024/02/27 01:29:13;;;;;;;;;;;6.60;99.90;;;;;;2050999;28;20124;-70
2024/02/27 01:30:13;;;;;;;;;;;6.60;99.90;;;;;;2058650;28;20023;-70
2024/02/27 01:31:14;;;;;;;;;;;6.60;99.90;;;;;;2051583;28;20024;-70
2024/02/27 01:32:14;;;;;;;;;;;6.60;99.90;;;;;;2059224;28;20424;-70
2024/02/27 01:33:15;;;;;;;;;;;6.60;99.90;;;;;;2059261;28;19921;-70
2024/02/27 01:34:15;;;;;;;;;;;6.60;99.90;;;;;;2059550;28;19989;-70
2024/02/27 01:35:18;;;;;;;;;;;6.60;99.90;;;;;;2058161;28;19910;-70
2024/02/27 01:36:18;;;;;;;;;;;6.60;99.90;;;;;;2057551;28;20339;-70
2024/02/27 01:37:19;;;;;;;;;;;6.60;99.90;;;;;;2057281;28;19910;-70
2024/02/27 01:38:19;;;;;;;;;;;6.60;99.90;;;;;;2057630;28;20184;-71
2024/02/27 01:39:20;;;;;;;;;;;6.60;99.90;;;;;;2055358;28;19932;-70
2024/02/27 01:40:20;;;;;;;;;;;6.60;99.90;;;;;;2053687;28;20431;-70
2024/02/27 01:41:21;;;;;;;;;;;6.60;99.90;;;;;;2057686;28;20368;-70
2024/02/27 01:42:21;;;;;;;;;;;6.60;99.90;;;;;;2055869;28;19913;-70
2024/02/27 01:43:25;;;;;;;;;;;6.60;99.90;;;;;;2058806;28;19961;-70
2024/02/27 01:44:28;;;;;;;;;;;6.60;99.90;;;;;;2051299;28;19936;-70
2024/02/27 01:45:29;;;;;;;;;;;6.70;99.90;;;;;;2059029;28;19914;-70
2024/02/27 01:46:29;;;;;;;;;;;6.70;99.90;;;;;;2059187;28;19914;-70
2024/02/27 01:47:30;;;;;;;;;;;6.70;99.90;;;;;;2058925;28;20403;-69
2024/02/27 01:48:33;;;;;;;;;;;6.70;99.90;;;;;;2054082;28;19997;-70
2024/02/27 01:49:33;;;;;;;;;;;6.70;99.90;;;;;;2056385;28;19965;-70
2024/02/27 01:50:34;;;;;;;;;;;6.70;99.90;;;;;;2058175;28;20407;-69
2024/02/27 01:51:34;;;;;;;;;;;6.70;99.90;;;;;;2058832;28;19914;-69
2024/02/27 01:52:35;;;;;;;;;;;6.80;99.90;;;;;;2058963;28;19914;-69
2024/02/27 01:53:36;;;;;;;;;;;6.80;99.90;;;;;;2055136;28;20017;-70
2024/02/27 01:54:37;;;;;;;;;;;6.80;99.90;;;;;;2058545;28;19910;-70
2024/02/27 01:55:38;;;;;;;;;;;6.80;99.90;;;;;;2058691;28;20359;-70
2024/02/27 01:56:39;;;;;;;;;;;6.70;99.90;;;;;;2055743;28;20320;-70
2024/02/27 01:57:39;;;;;;;;;;;6.70;99.90;;;;;;2059467;28;20387;-69
2024/02/27 01:58:40;;;;;;;;;;;6.70;99.90;;;;;;2058738;28;19945;-69
2024/02/27 01:59:41;;;;;;;;;;;6.60;99.90;;;;;;2054740;28;19914;-69
2024/02/27 02:00:43;;;;;;;;;;;6.60;99.90;;;;;;2058965;28;20004;-70
2024/02/27 02:01:44;;;;;;;;;;;6.60;99.90;;;;;;2058080;28;19906;-71
2024/02/27 02:02:44;;;;;;;;;;;6.60;99.90;;;;;;2055662;28;19921;-69
2024/02/27 02:03:45;;;;;;;;;;;6.70;99.90;;;;;;2058707;28;19920;-69
2024/02/27 02:04:46;;;;;;;;;;;6.70;99.90;;;;;;2058705;28;19913;-71
2024/02/27 02:05:47;;;;;;;;;;;6.70;99.90;;;;;;2058249;28;19910;-69
2024/02/27 02:06:47;;;;;;;;;;;6.60;99.90;;;;;;2056475;28;19997;-70
2024/02/27 02:07:48;;;;;;;;;;;6.60;99.90;;;;;;2059677;28;20299;-70
2024/02/27 02:08:48;;;;;;;;;;;6.60;99.90;;;;;;2059398;28;19914;-69
2024/02/27 02:09:49;;;;;;;;;;;6.60;99.90;;;;;;2059410;28;19913;-71
2024/02/27 02:10:49;;;;;;;;;;;6.60;99.90;;;;;;2058956;28;20037;-69
2024/02/27 02:11:50;;;;;;;;;;;6.60;99.90;;;;;;2054368;28;19917;-70
2024/02/27 02:12:50;;;;;;;;;;;6.60;99.90;;;;;;2051111;28;19921;-70
2024/02/27 02:13:51;;;;;;;;;;;6.70;99.90;;;;;;2055535;28;19968;-69
2024/02/27 02:14:52;;;;;;;;;;;6.70;99.90;;;;;;2059486;28;19917;-70
2024/02/27 02:15:52;;;;;;;;;;;6.60;99.90;;;;;;2059450;28;19913;-69
2024/02/27 02:16:53;;;;;;;;;;;6.60;99.90;;;;;;2059819;28;19910;-70
2024/02/27 02:17:54;;;;;;;;;;;6.60;99.90;;;;;;2059564;28;20033;-69
2024/02/27 02:18:56;;;;;;;;;;;6.60;99.90;;;;;;2059529;28;19909;-70
2024/02/27 02:19:56;;;;;;;;;;;6.60;99.90;;;;;;2059251;28;19913;-70
2024/02/27 02:20:58;;;;;;;;;;;6.60;99.90;;;;;;2059474;28;19910;-71
2024/02/27 02:21:59;;;;;;;;;;;6.60;99.90;;;;;;2058440;28;19910;-70
2024/02/27 02:22:59;;;;;;;;;;;6.60;99.90;;;;;;2054985;28;20369;-70
2024/02/27 02:24:01;;;;;;;;;;;6.70;99.90;;;;;;2059671;28;20418;-70
2024/02/27 02:25:02;;;;;;;;;;;6.70;99.90;;;;;;2052198;28;19921;-70
2024/02/27 02:26:03;;;;;;;;;;;6.70;99.90;;;;;;2052712;28;19910;-70
2024/02/27 02:27:03;;;;;;;;;;;6.70;99.90;;;;;;2059348;28;19913;-70
2024/02/27 02:28:04;;;;;;;;;;;6.70;99.90;;;;;;2059504;28;20008;-70
2024/02/27 02:29:05;;;;;;;;;;;6.70;99.90;;;;;;2059449;28;20371;-70
2024/02/27 02:30:06;;;;;;;;;;;6.60;99.90;;;;;;2055260;28;20376;-69
2024/02/27 02:31:06;;;;;;;;;;;6.70;99.90;;;;;;2055746;28;19920;-70
2024/02/27 02:32:07;;;;;;;;;;;6.70;99.90;;;;;;2056929;28;19910;-71
2024/02/27 02:33:10;;;;;;;;;;;6.70;99.90;;;;;;2057727;28;20283;-71
2024/02/27 02:34:10;;;;;;;;;;;6.70;99.90;;;;;;2059780;28;19913;-71
2024/02/27 02:35:11;;;;;;;;;;;6.70;99.90;;;;;;2059455;28;20375;-71
2024/02/27 02:36:11;;;;;;;;;;;6.60;99.90;;;;;;2055382;28;20391;-70
2024/02/27 02:37:12;;;;;;;;;;;6.70;99.90;;;;;;2059545;28;19909;-71
2024/02/27 02:38:12;;;;;;;;;;;6.70;99.90;;;;;;2058742;28;19910;-70
2024/02/27 02:39:13;;;;;;;;;;;6.70;99.90;;;;;;2055141;28;19937;-71
2024/02/27 02:40:14;;;;;;;;;;;6.60;99.90;;;;;;2058903;28;20212;-73
2024/02/27 02:41:15;;;;;;;;;;;6.60;99.90;;;;;;2055076;28;20422;-72
2024/02/27 02:42:15;;;;;;;;;;;6.60;99.90;;;;;;2055606;28;20009;-72
2024/02/27 02:43:16;;;;;;;;;;;6.70;99.90;;;;;;2058612;28;19921;-72
2024/02/27 02:44:16;;;;;;;;;;;6.70;99.90;;;;;;2055161;28;19949;-72
2024/02/27 02:45:17;;;;;;;;;;;6.60;99.90;;;;;;2051046;28;19933;-72
2024/02/27 02:46:18;;;;;;;;;;;6.70;99.90;;;;;;2058447;28;19964;-71
2024/02/27 02:47:18;;;;;;;;;;;6.70;99.90;;;;;;2059126;28;20371;-72
2024/02/27 02:48:19;;;;;;;;;;;6.70;99.90;;;;;;2052401;28;19914;-72
2024/02/27 02:49:19;;;;;;;;;;;6.60;99.90;;;;;;2058462;28;19968;-73
2024/02/27 02:50:20;;;;;;;;;;;6.60;99.90;;;;;;2060714;28;19914;-72
2024/02/27 02:51:20;;;;;;;;;;;6.60;99.90;;;;;;2060960;28;20253;-71
2024/02/27 02:52:21;;;;;;;;;;;6.60;99.90;;;;;;2060732;28;19909;-71
2024/02/27 02:53:21;;;;;;;;;;;6.70;99.90;;;;;;2060692;28;19918;-72
2024/02/27 02:54:23;;;;;;;;;;;6.70;99.90;;;;;;2060144;28;20017;-72
2024/02/27 02:55:23;;;;;;;;;;;6.70;99.90;;;;;;2052203;28;19964;-72
2024/02/27 02:56:24;;;;;;;;;;;6.70;99.90;;;;;;2052156;28;19913;-71
2024/02/27 02:57:24;;;;;;;;;;;6.70;99.90;;;;;;2060612;28;20348;-71
2024/02/27 02:58:25;;;;;;;;;;;6.70;99.90;;;;;;2057105;28;19953;-72
2024/02/27 02:59:25;;;;;;;;;;;6.70;99.90;;;;;;2060077;28;20319;-71
2024/02/27 03:00:26;;;;;;;;;;;6.70;99.90;;;;;;2060325;28;19917;-71
2024/02/27 03:01:26;;;;;;;;;;;6.70;99.90;;;;;;2060799;28;19960;-73
2024/02/27 03:02:27;;;;;;;;;;;6.70;99.90;;;;;;2062408;28;20346;-73
2024/02/27 03:03:27;;;;;;;;;;;6.70;99.90;;;;;;2060863;28;20412;-71
2024/02/27 03:04:28;;;;;;;;;;;6.70;99.90;;;;;;2057022;28;19917;-70
2024/02/27 03:05:28;;;;;;;;;;;6.70;99.90;;;;;;2059576;28;20020;-72
2024/02/27 03:06:29;;;;;;;;;;;6.70;99.90;;;;;;2056122;28;19909;-71
2024/02/27 03:07:29;;;;;;;;;;;6.70;99.90;;;;;;2051953;28;19921;-70
2024/02/27 03:08:30;;;;;;;;;;;6.70;99.90;;;;;;2060180;28;19988;-71
2024/02/27 03:09:33;;;;;;;;;;;6.70;99.90;;;;;;2056761;28;19914;-70
2024/02/27 03:10:34;;;;;;;;;;;6.70;99.90;;;;;;2053138;28;20076;-71
2024/02/27 03:11:34;;;;;;;;;;;6.70;99.90;;;;;;2060906;28;19957;-71
2024/02/27 03:12:36;;;;;;;;;;;6.70;99.90;;;;;;2060544;28;19914;-72
2024/02/27 03:13:37;;;;;;;;;;;6.70;99.90;;;;;;2060659;28;19945;-72
2024/02/27 03:14:42;;;;;;;;;;;6.70;99.90;;;;;;2059620;28;20435;-71
2024/02/27 03:15:43;;;;;;;;;;;6.70;99.90;;;;;;2059722;28;19906;-71
2024/02/27 03:16:45;;;;;;;;;;;6.60;99.90;;;;;;2057896;28;20450;-72
2024/02/27 03:17:46;;;;;;;;;;;6.60;99.90;;;;;;2055031;28;19921;-71
2024/02/27 03:18:46;;;;;;;;;;;6.60;99.90;;;;;;2060469;28;19909;-72
2024/02/27 03:19:47;;;;;;;;;;;6.60;99.90;;;;;;2060710;28;19909;-72
2024/02/27 03:20:48;;;;;;;;;;;6.60;99.90;;;;;;2060682;28;20359;-72
2024/02/27 03:21:48;;;;;;;;;;;6.60;99.90;;;;;;2056312;28;19914;-72
2024/02/27 03:22:49;;;;;;;;;;;6.60;99.90;;;;;;2060050;28;20300;-72
2024/02/27 03:23:49;;;;;;;;;;;6.60;99.90;;;;;;2060621;28;19909;-72
2024/02/27 03:24:50;;;;;;;;;;;6.60;99.90;;;;;;2060569;28;20356;-71
2024/02/27 03:25:50;;;;;;;;;;;6.60;99.90;;;;;;2054536;28;19960;-72
2024/02/27 03:26:51;;;;;;;;;;;6.60;99.90;;;;;;2057951;28;19972;-72
2024/02/27 03:27:51;;;;;;;;;;;6.60;99.90;;;;;;2059910;28;19916;-72
2024/02/27 03:28:52;;;;;;;;;;;6.60;99.90;;;;;;2060646;28;19914;-73
2024/02/27 03:29:52;;;;;;;;;;;6.60;99.90;;;;;;2057944;28;20296;-72
2024/02/27 03:30:53;;;;;;;;;;;6.60;99.90;;;;;;2051061;28;20411;-71
2024/02/27 03:31:53;;;;;;;;;;;6.60;99.90;;;;;;2054998;28;19921;-72
2024/02/27 03:32:54;;;;;;;;;;;6.60;99.90;;;;;;2060299;28;19976;-72
2024/02/27 03:33:54;;;;;;;;;;;6.60;99.90;;;;;;2060339;28;20339;-72
2024/02/27 03:34:55;;;;;;;;;;;6.60;99.90;;;;;;2060695;28;19918;-71
2024/02/27 03:35:55;;;;;;;;;;;6.60;99.90;;;;;;2060717;28;19968;-73
2024/02/27 03:36:56;;;;;;;;;;;6.60;99.90;;;;;;2057040;28;20314;-72
2024/02/27 03:37:56;;;;;;;;;;;6.60;99.90;;;;;;2059371;28;19953;-72
2024/02/27 03:38:57;;;;;;;;;;;6.60;99.90;;;;;;2059731;28;19988;-72
2024/02/27 03:39:57;;;;;;;;;;;6.60;99.90;;;;;;2059873;28;19955;-75
2024/02/27 03:40:57;;;;;;;;;;;6.60;99.90;;;;;;2060736;28;19920;-77
2024/02/27 03:41:58;;;;;;;;;;;6.70;99.90;;;;;;2060700;28;20448;-76
2024/02/27 03:42:58;;;;;;;;;;;6.70;99.90;;;;;;2060965;28;20300;-77
2024/02/27 03:43:59;;;;;;;;;;;6.70;99.90;;;;;;2061078;28;19918;-77
2024/02/27 03:45:00;;;;;;;;;;;6.70;99.90;;;;;;2060249;28;20299;-78
2024/02/27 03:46:00;;;;;;;;;;;6.70;99.90;;;;;;2060509;28;19913;-80
2024/02/27 03:47:01;;;;;;;;;;;6.60;99.90;;;;;;2061671;28;20277;-76
2024/02/27 03:48:02;;;;;;;;;;;6.70;99.90;;;;;;2057503;28;19968;-78
2024/02/27 03:49:02;;;;;;;;;;;6.60;99.90;;;;;;2059881;28;19925;-68
2024/02/27 03:50:03;;;;;;;;;;;6.60;99.90;;;;;;2060603;28;19910;-68
2024/02/27 03:51:06;;;;;;;;;;;6.60;99.90;;;;;;2060188;28;19992;-68
2024/02/27 03:52:07;;;;;;;;;;;6.60;99.90;;;;;;2060020;28;19910;-69
2024/02/27 03:53:07;;;;;;;;;;;6.50;99.90;;;;;;2060473;28;20141;-68
2024/02/27 03:54:08;;;;;;;;;;;6.60;99.90;;;;;;2060238;28;19967;-68
2024/02/27 03:55:08;;;;;;;;;;;6.60;99.90;;;;;;2055878;28;19914;-70
2024/02/27 03:56:09;;;;;;;;;;;6.60;99.90;;;;;;2060616;28;19997;-68
2024/02/27 03:57:13;;;;;;;;;;;6.60;99.90;;;;;;2060132;28;19909;-67
2024/02/27 03:58:13;;;;;;;;;;;6.60;99.90;;;;;;2059476;28;19943;-68
2024/02/27 03:59:14;;;;;;;;;;;6.70;99.90;;;;;;2056941;28;20387;-68
2024/02/27 04:00:15;;;;;;;;;;;6.70;99.90;;;;;;2059203;28;20056;-68
2024/02/27 04:01:16;;;;;;;;;;;6.70;99.90;;;;;;2055666;28;20503;-67
2024/02/27 04:02:17;;;;;;;;;;;6.70;99.90;;;;;;2060336;28;20419;-68
2024/02/27 04:03:17;;;;;;;;;;;6.70;99.90;;;;;;2060061;28;19971;-68
2024/02/27 04:04:18;;;;;;;;;;;6.70;99.90;;;;;;2060444;28;19918;-68
2024/02/27 04:05:18;;;;;;;;;;;6.70;99.90;;;;;;2060188;28;19914;-68
2024/02/27 04:06:19;;;;;;;;;;;6.80;99.90;;;;;;2060713;28;19909;-67
2024/02/27 04:07:19;;;;;;;;;;;6.80;99.90;;;;;;2060299;28;20336;-68
2024/02/27 04:08:19;;;;;;;;;;;6.70;99.90;;;;;;2059985;28;19910;-67
2024/02/27 04:09:20;;;;;;;;;;;6.70;99.90;;;;;;2060306;28;20384;-68
2024/02/27 04:10:21;;;;;;;;;;;6.70;99.90;;;;;;2057615;28;19913;-67
2024/02/27 04:11:21;;;;;;;;;;;6.70;99.90;;;;;;2057283;28;20000;-68
2024/02/27 04:12:22;;;;;;;;;;;6.80;99.90;;;;;;2056355;28;19925;-69
2024/02/27 04:13:23;;;;;;;;;;;6.80;99.90;;;;;;2055897;28;19922;-69
2024/02/27 04:14:24;;;;;;;;;;;6.80;99.90;;;;;;2060487;28;19952;-68
2024/02/27 04:15:24;;;;;;;;;;;6.70;99.90;;;;;;2057431;28;19906;-67
2024/02/27 04:16:25;;;;;;;;;;;6.70;99.90;;;;;;2055439;28;20053;-67
2024/02/27 04:17:25;;;;;;;;;;;6.70;99.90;;;;;;2057791;28;19914;-68
2024/02/27 04:18:26;;;;;;;;;;;6.70;99.90;;;;;;2059995;28;20255;-68
2024/02/27 04:19:26;;;;;;;;;;;6.70;99.90;;;;;;2058745;28;19914;-66
2024/02/27 04:20:27;;;;;;;;;;;6.70;99.90;;;;;;2060095;28;19999;-67
2024/02/27 04:21:27;;;;;;;;;;;6.70;99.90;;;;;;2055958;28;20372;-67
2024/02/27 04:22:28;;;;;;;;;;;6.70;99.90;;;;;;2060369;28;19956;-67
2024/02/27 04:23:28;;;;;;;;;;;6.70;99.90;;;;;;2060009;28;19995;-67
2024/02/27 04:24:28;;;;;;;;;;;6.60;99.90;;;;;;2055422;28;19920;-68
2024/02/27 04:25:29;;;;;;;;;;;6.60;99.90;;;;;;2059570;28;19913;-67
2024/02/27 04:26:30;;;;;;;;;;;6.60;99.90;;;;;;2060091;28;20396;-69
2024/02/27 04:27:30;;;;;;;;;;;6.60;99.90;;;;;;2059331;28;19976;-67
2024/02/27 04:28:31;;;;;;;;;;;6.60;99.90;;;;;;2056286;28;19914;-67
2024/02/27 04:29:31;;;;;;;;;;;6.60;99.90;;;;;;2060001;28;19921;-68
2024/02/27 04:30:32;;;;;;;;;;;6.60;99.90;;;;;;2060040;28;19953;-69
2024/02/27 04:31:32;;;;;;;;;;;6.60;99.90;;;;;;2057277;28;20536;-69
2024/02/27 04:32:33;;;;;;;;;;;6.60;99.90;;;;;;2056119;28;19917;-68
2024/02/27 04:33:34;;;;;;;;;;;6.60;99.90;;;;;;2060055;28;20395;-68
2024/02/27 04:34:34;;;;;;;;;;;6.60;99.90;;;;;;2057258;28;19948;-70
2024/02/27 04:35:35;;;;;;;;;;;6.60;99.90;;;;;;2058978;28;20008;-69
2024/02/27 04:36:35;;;;;;;;;;;6.60;99.90;;;;;;2053773;28;20008;-68
2024/02/27 04:37:36;;;;;;;;;;;6.60;99.90;;;;;;2058237;28;19989;-67
2024/02/27 04:38:36;;;;;;;;;;;6.60;99.90;;;;;;2059810;28;19920;-68
2024/02/27 04:39:37;;;;;;;;;;;6.50;99.90;;;;;;2057452;28;19985;-68
2024/02/27 04:40:37;;;;;;;;;;;6.50;99.90;;;;;;2055191;28;19917;-68
2024/02/27 04:41:38;;;;;;;;;;;6.60;99.90;;;;;;2058019;28;20928;-68
2024/02/27 04:42:38;;;;;;;;;;;6.80;99.90;;;;;;2059587;28;19965;-68
2024/02/27 04:43:39;;;;;;;;;;;6.80;99.90;;;;;;2060037;28;19957;-68
2024/02/27 04:44:39;;;;;;;;;;;6.80;99.90;;;;;;2056826;28;19914;-68
2024/02/27 04:45:40;;;;;;;;;;;6.70;99.90;;;;;;2054847;28;19957;-68
2024/02/27 04:46:40;;;;;;;;;;;6.80;99.90;;;;;;2059963;28;20194;-67
2024/02/27 04:47:41;;;;;;;;;;;6.90;99.90;;;;;;2056977;28;19921;-66
2024/02/27 04:48:42;;;;;;;;;;;6.90;99.90;;;;;;2055043;28;20367;-68
2024/02/27 04:49:42;;;;;;;;;;;6.90;99.90;;;;;;2060000;28;19913;-69
2024/02/27 04:50:43;;;;;;;;;;;6.80;99.90;;;;;;2059688;28;19912;-69
2024/02/27 04:51:44;;;;;;;;;;;6.80;99.90;;;;;;2056006;28;20520;-68
2024/02/27 04:52:44;;;;;;;;;;;6.70;99.90;;;;;;2056192;28;19956;-68
2024/02/27 04:53:45;;;;;;;;;;;6.70;99.90;;;;;;2059547;28;20418;-67
2024/02/27 04:54:45;;;;;;;;;;;6.70;99.90;;;;;;2059085;28;19949;-67
2024/02/27 04:55:46;;;;;;;;;;;6.70;99.90;;;;;;2057041;28;20304;-67
2024/02/27 04:56:46;;;;;;;;;;;6.70;99.90;;;;;;2060042;28;19936;-67
2024/02/27 04:57:47;;;;;;;;;;;6.70;99.90;;;;;;2059904;28;19922;-68
2024/02/27 04:58:47;;;;;;;;;;;6.70;99.90;;;;;;2059862;28;20201;-68
2024/02/27 04:59:48;;;;;;;;;;;6.70;99.90;;;;;;2059785;28;19960;-68
2024/02/27 05:00:48;;;;;;;;;;;6.70;99.90;;;;;;2059031;28;20213;-68
2024/02/27 05:01:49;;;;;;;;;;;6.60;99.90;;;;;;2059121;28;19995;-68
2024/02/27 05:02:50;;;;;;;;;;;6.60;99.90;;;;;;2059951;28;19980;-67
2024/02/27 05:03:50;;;;;;;;;;;6.50;99.90;;;;;;2059999;28;19913;-68
2024/02/27 05:04:50;;;;;;;;;;;6.50;99.90;;;;;;2055042;28;19913;-68
2024/02/27 05:05:51;;;;;;;;;;;6.50;99.90;;;;;;2059334;28;20019;-69
2024/02/27 05:06:51;;;;;;;;;;;6.50;99.90;;;;;;2055907;28;19957;-68
2024/02/27 05:07:52;;;;;;;;;;;6.50;99.90;;;;;;2058870;28;19949;-68
2024/02/27 05:08:52;;;;;;;;;;;6.50;99.90;;;;;;2059123;28;20387;-68
2024/02/27 05:09:53;;;;;;;;;;;6.50;99.90;;;;;;2059108;28;19909;-68
2024/02/27 05:10:53;;;;;;;;;;;6.50;99.90;;;;;;2054831;28;19916;-68
2024/02/27 05:11:54;;;;;;;;;;;6.50;99.90;;;;;;2055389;28;19910;-67
2024/02/27 05:12:55;;;;;;;;;;;6.50;99.90;;;;;;2058005;28;20353;-67
2024/02/27 05:13:55;;;;;;;;;;;6.50;99.90;;;;;;2059418;28;19922;-68
2024/02/27 05:14:56;;;;;;;;;;;6.50;99.90;;;;;;2055118;28;19914;-69
2024/02/27 05:15:56;;;;;;;;;;;6.50;99.90;;;;;;2059929;28;20522;-68
2024/02/27 05:16:57;;;;;;;;;;;6.50;99.90;;;;;;2055925;28;19968;-67
2024/02/27 05:17:58;;;;;;;;;;;6.50;99.90;;;;;;2055553;28;19920;-67
2024/02/27 05:18:58;;;;;;;;;;;6.50;99.90;;;;;;2055250;28;19910;-68
2024/02/27 05:19:59;;;;;;;;;;;6.40;99.90;;;;;;2055852;28;19976;-67
2024/02/27 05:21:02;;;;;;;;;;;6.40;99.90;;;;;;2055826;28;19910;-67
2024/02/27 05:22:03;;;;;;;;;;;6.40;99.90;;;;;;2059670;28;19920;-67
2024/02/27 05:23:03;;;;;;;;;;;6.40;99.90;;;;;;2059931;28;20052;-69
2024/02/27 05:24:04;;;;;;;;;;;6.30;99.90;;;;;;2058879;28;19910;-67
2024/02/27 05:25:05;;;;;;;;;;;6.30;99.90;;;;;;2056173;28;20220;-68
2024/02/27 05:26:06;;;;;;;;;;;6.30;99.90;;;;;;2054750;28;19913;-68
2024/02/27 05:27:06;;;;;;;;;;;6.30;99.90;;;;;;2056590;28;19910;-67
2024/02/27 05:28:07;;;;;;;;;;;6.30;99.90;;;;;;2055810;28;19913;-68
2024/02/27 05:29:07;;;;;;;;;;;6.30;99.90;;;;;;2055531;28;19938;-67
2024/02/27 05:30:08;;;;;;;;;;;6.30;99.90;;;;;;2059753;28;20080;-67
2024/02/27 05:31:27;;;;;;;;;;;6.30;99.90;;;;;;2046811;28;19957;-66
2024/02/27 05:32:28;;;;;;;;;;;6.40;99.90;;;;;;2055703;28;19929;-68
2024/02/27 05:33:28;;;;;;;;;;;6.40;99.90;;;;;;2058649;28;20372;-67
2024/02/27 05:34:29;;;;;;;;;;;6.30;99.90;;;;;;2055021;28;20362;-68
2024/02/27 05:35:29;;;;;;;;;;;6.40;99.90;;;;;;2055553;28;19914;-67
2024/02/27 05:36:30;;;;;;;;;;;6.40;99.90;;;;;;2059546;28;20031;-68
2024/02/27 05:37:30;;;;;;;;;;;6.40;99.90;;;;;;2059592;28;19953;-68
2024/02/27 05:38:31;;;;;;;;;;;6.30;99.90;;;;;;2055538;28;20399;-68
2024/02/27 05:39:31;;;;;;;;;;;6.40;99.90;;;;;;2054239;28;19985;-68
2024/02/27 05:40:32;;;;;;;;;;;6.30;99.90;;;;;;2047059;28;20437;-68
2024/02/27 05:41:32;;;;;;;;;;;6.30;99.90;;;;;;2058839;28;19914;-69
2024/02/27 05:42:33;;;;;;;;;;;6.30;99.90;;;;;;2058668;28;19954;-67
2024/02/27 05:43:33;;;;;;;;;;;6.30;99.90;;;;;;2055022;28;19932;-66
2024/02/27 05:44:34;;;;;;;;;;;6.30;99.90;;;;;;2066884;28;19909;-68
2024/02/27 05:45:35;;;;;;;;;;;6.20;99.90;;;;;;2059381;28;19917;-67
2024/02/27 05:46:36;;;;;;;;;;;6.20;99.90;;;;;;2055805;28;19914;-67
2024/02/27 05:47:36;;;;;;;;;;;6.20;99.90;;;;;;2055102;28;19968;-68
2024/02/27 05:48:37;;;;;;;;;;;6.20;99.90;;;;;;2056076;28;19913;-68
2024/02/27 05:49:38;;;;;;;;;;;6.10;99.90;;;;;;2059550;28;20005;-67
2024/02/27 05:50:38;;;;;;;;;;;6.10;99.90;;;;;;2054554;28;19917;-67
2024/02/27 05:51:40;;;;;;;;;;;6.10;99.90;;;;;;2056113;28;19914;-68
2024/02/27 05:52:41;;;;;;;;;;;6.10;99.90;;;;;;2058036;28;19921;-67
2024/02/27 05:53:42;;;;;;;;;;;6.10;99.90;;;;;;2056267;28;19948;-68
2024/02/27 05:54:43;;;;;;;;;;;6.10;99.90;;;;;;2054643;28;20013;-67
2024/02/27 05:55:44;;;;;;;;;;;6.10;99.90;;;;;;2056545;28;20300;-68
2024/02/27 05:56:44;;;;;;;;;;;6.10;99.90;;;;;;2059397;28;19964;-67
2024/02/27 05:57:45;;;;;;;;;;;6.10;99.90;;;;;;2059787;28;19913;-68
2024/02/27 05:58:45;;;;;;;;;;;6.20;99.90;;;;;;2059515;28;20352;-68